Terminal Aerodrome Forecast
Issued by NWS

Home | Current Version | Previous Version | Text Only | Print | Product List | Glossary On
Versions: 1 2 3 4 5 6 7 8 9 10 11 12 13 14 15 16 17 18 19 20 21 22 23 24 25 26 27 28 29
000
FTUS44 KSJT 301135
TAFSOA
TAF
KSOA 301135Z 3012/3112 15006KT P6SM VCTS SCT020 SCT060CB BKN150
     FM301300 15006KT P6SM BKN018
     FM301600 15006KT P6SM SCT040 BKN250
     FM310600 12004KT P6SM VCSH BKN020=

USA.gov is the U.S. government's official web portal to all federal, state and local government web resources and services.